Waterford, Minnesota
Current Conditions -  °F | °C
As of 11:54 PM on Thursday 27 Nov 2014 (Local Time) from KSYN Reporting Station
Light Snow Light Snow  
Wind Chill:   Ceiling: 700
Heat Index:   Visibility: 1.2mi
Dew Point:   Wind: 0mph
Humidity: 81%   Direction: NA
Pressure: 30.27"   Gusts: NA
Location:  44.4726°N, 93.1785°W
Report Text: KSYN 280554Z AUTO 00000KT 1 1/4SM -SN OVC007 M13/M15 A3027 RMK AO2 T11281155 11125 21169 410821225
Loading
Personal Weather Stations






























Interactive Weather Map New forecast layout! Learn more

10-Day Weather Forecast

Advertisements
Track Severe Weather on mobile